createdAt,value
2019-05-13T00:02:04.868Z,100301.88
2019-05-13T00:04:34.356Z,100300.32
2019-05-13T00:07:04.766Z,100293.80
2019-05-13T00:09:34.376Z,100289.05
2019-05-13T00:12:04.623Z,100288.30
2019-05-13T00:14:34.643Z,100282.50
2019-05-13T00:17:04.515Z,100278.30
2019-05-13T00:19:34.932Z,100278.23
2019-05-13T00:22:05.913Z,100283.06
2019-05-13T00:24:35.310Z,100286.94
2019-05-13T00:27:05.090Z,100287.68
2019-05-13T00:29:34.488Z,100289.56
2019-05-13T00:32:04.847Z,100293.81
2019-05-13T00:34:34.449Z,100290.63
2019-05-13T00:37:11.311Z,100289.47
2019-05-13T00:39:34.973Z,100290.50
2019-05-13T00:42:04.554Z,100282.99
2019-05-13T00:44:34.071Z,100285.43
2019-05-13T00:47:04.455Z,100281.45
2019-05-13T00:49:34.641Z,100282.00
2019-05-13T00:52:04.467Z,100285.27
2019-05-13T00:54:34.300Z,100287.56
2019-05-13T00:57:04.518Z,100288.16
2019-05-13T00:59:34.254Z,100289.55
2019-05-13T01:02:04.121Z,100275.29
2019-05-13T01:04:34.003Z,100282.67
2019-05-13T01:07:04.428Z,100280.05
2019-05-13T01:09:34.412Z,100283.75
2019-05-13T01:12:04.501Z,100284.80
2019-05-13T01:14:34.435Z,100288.97
2019-05-13T01:17:04.208Z,100291.94
2019-05-13T01:19:34.378Z,100289.20
2019-05-13T01:22:04.315Z,100289.20
2019-05-13T01:24:34.076Z,100287.11
2019-05-13T01:27:04.319Z,100286.64
2019-05-13T01:29:34.339Z,100287.64
2019-05-13T01:32:04.687Z,100291.28
2019-05-13T01:34:34.216Z,100286.55
2019-05-13T01:37:04.385Z,100284.34
2019-05-13T01:39:34.930Z,100291.63
2019-05-13T01:42:04.938Z,100290.61
2019-05-13T01:44:34.327Z,100286.77
2019-05-13T01:47:04.549Z,100287.05
2019-05-13T01:49:34.251Z,100289.09
2019-05-13T01:52:04.148Z,100290.72
2019-05-13T01:54:34.090Z,100288.22
2019-05-13T01:57:04.626Z,100289.80
2019-05-13T01:59:34.817Z,100283.23
2019-05-13T02:02:05.166Z,100281.64
2019-05-13T02:04:34.564Z,100288.12
2019-05-13T02:07:04.443Z,100283.17
2019-05-13T02:09:34.577Z,100280.80
2019-05-13T02:12:04.790Z,100274.98
2019-05-13T02:14:34.523Z,100281.89
2019-05-13T02:17:04.453Z,100280.41
2019-05-13T02:19:33.880Z,100277.59
2019-05-13T02:22:04.152Z,100275.49
2019-05-13T02:24:34.352Z,100277.94
2019-05-13T02:27:04.217Z,100281.85
2019-05-13T02:29:34.442Z,100278.63
2019-05-13T02:32:04.066Z,100274.87
2019-05-13T02:34:33.461Z,100271.39
2019-05-13T02:37:03.559Z,100277.41
2019-05-13T02:39:33.244Z,100272.96
2019-05-13T02:42:03.868Z,100275.75
2019-05-13T02:44:34.115Z,100278.42
2019-05-13T02:47:03.920Z,100277.66
2019-05-13T02:49:33.610Z,100283.34
2019-05-13T02:52:03.405Z,100283.80
2019-05-13T02:54:34.044Z,100284.66
2019-05-13T02:57:04.314Z,100288.73
2019-05-13T02:59:34.061Z,100281.91
2019-05-13T03:02:04.453Z,100286.27
2019-05-13T03:04:33.861Z,100288.13
2019-05-13T03:07:03.408Z,100287.30
2019-05-13T03:09:32.928Z,100284.48
2019-05-13T03:12:04.078Z,100293.89
2019-05-13T03:14:33.445Z,100305.15
2019-05-13T03:17:07.473Z,100301.70
2019-05-13T03:19:36.847Z,100302.88
2019-05-13T03:22:06.258Z,100300.55
2019-05-13T03:24:35.658Z,100308.28
2019-05-13T03:27:05.065Z,100302.78
2019-05-13T03:29:34.459Z,100296.34
2019-05-13T03:32:06.643Z,100299.44
2019-05-13T03:34:36.656Z,100298.95
2019-05-13T03:37:08.071Z,100303.77
2019-05-13T03:39:43.496Z,100298.51
2019-05-13T03:42:13.705Z,100310.59
2019-05-13T03:44:44.946Z,100310.59
2019-05-13T03:47:15.122Z,100314.76
2019-05-13T03:49:44.590Z,100312.04
2019-05-13T03:52:13.973Z,100314.96
2019-05-13T03:54:43.922Z,100322.33
2019-05-13T03:57:13.574Z,100321.57
2019-05-13T03:59:43.822Z,100317.69
2019-05-13T04:02:13.552Z,100319.47
2019-05-13T04:04:43.037Z,100320.06
2019-05-13T04:07:13.365Z,100314.41
2019-05-13T04:09:42.863Z,100314.86
2019-05-13T04:12:13.464Z,100323.56
2019-05-13T04:14:43.366Z,100320.30
2019-05-13T04:17:12.920Z,100316.06
2019-05-13T04:19:42.652Z,100316.34
2019-05-13T04:22:13.021Z,100317.02
2019-05-13T04:24:42.982Z,100313.68
2019-05-13T04:27:13.392Z,100304.69
2019-05-13T04:29:43.438Z,100309.64
2019-05-13T04:32:13.354Z,100312.91
2019-05-13T04:34:42.820Z,100310.80
2019-05-13T04:37:13.377Z,100321.95
2019-05-13T04:39:51.074Z,100328.59
2019-05-13T04:42:14.171Z,100327.20
2019-05-13T04:44:43.683Z,100329.02
2019-05-13T04:47:13.112Z,100323.94
2019-05-13T04:49:43.057Z,100334.83
2019-05-13T04:52:13.398Z,100339.05
2019-05-13T04:54:43.545Z,100337.26
2019-05-13T04:57:13.503Z,100341.70
2019-05-13T04:59:44.486Z,100338.34
2019-05-13T05:02:46.050Z,100342.84
2019-05-13T05:05:22.193Z,100343.83
2019-05-13T05:08:28.087Z,100345.16
2019-05-13T05:11:13.049Z,100344.32
2019-05-13T05:14:02.735Z,100353.26
2019-05-13T05:16:52.615Z,100350.23
2019-05-13T05:19:52.480Z,100351.80
2019-05-13T05:22:51.346Z,100343.48
2019-05-13T05:25:32.818Z,100347.57
2019-05-13T05:28:26.635Z,100347.38
2019-05-13T05:31:05.235Z,100345.34
2019-05-13T05:33:51.654Z,100344.60
2019-05-13T05:36:41.492Z,100348.20
2019-05-13T05:39:23.293Z,100352.34
2019-05-13T05:41:55.018Z,100349.56
2019-05-13T05:44:32.106Z,100350.02
2019-05-13T05:47:03.034Z,100356.02
2019-05-13T05:49:32.564Z,100355.64
2019-05-13T05:52:05.021Z,100357.09
2019-05-13T05:54:36.853Z,100357.51
2019-05-13T05:57:07.909Z,100348.44
2019-05-13T05:59:38.248Z,100356.43
2019-05-13T06:02:11.922Z,100358.47
2019-05-13T06:04:43.016Z,100349.02
2019-05-13T06:07:12.863Z,100357.97
2019-05-13T06:09:42.522Z,100351.28
2019-05-13T06:12:13.074Z,100364.81
2019-05-13T06:14:42.910Z,100360.53
2019-05-13T06:17:12.327Z,100362.48
2019-05-13T06:19:42.070Z,100362.15
2019-05-13T06:22:12.322Z,100361.95
2019-05-13T06:24:42.392Z,100359.19
2019-05-13T06:27:12.009Z,100361.06
2019-05-13T06:29:42.276Z,100363.47
2019-05-13T06:32:21.446Z,100370.84
2019-05-13T06:34:43.332Z,100365.87
2019-05-13T06:37:12.766Z,100365.72
2019-05-13T06:39:42.709Z,100369.00
2019-05-13T06:42:12.134Z,100364.11
2019-05-13T06:44:42.226Z,100356.72
2019-05-13T06:47:11.810Z,100354.78
2019-05-13T06:49:42.802Z,100366.00
2019-05-13T06:52:12.437Z,100348.61
2019-05-13T06:54:42.085Z,100347.77
2019-05-13T06:57:13.458Z,100352.94
2019-05-13T06:59:42.878Z,100348.34
2019-05-13T07:02:12.587Z,100346.62
2019-05-13T07:04:42.036Z,100352.91
2019-05-13T07:07:16.226Z,100344.42
2019-05-13T07:09:42.854Z,100349.88
2019-05-13T07:12:12.201Z,100356.03
2019-05-13T07:14:41.633Z,100353.06
2019-05-13T07:17:12.353Z,100357.77
2019-05-13T07:19:41.992Z,100357.89
2019-05-13T07:22:11.874Z,100351.11
2019-05-13T07:24:42.843Z,100363.50
2019-05-13T07:27:12.459Z,100357.82
2019-05-13T07:29:42.449Z,100360.81
2019-05-13T07:32:12.211Z,100355.31
2019-05-13T07:34:43.857Z,100362.08
2019-05-13T07:37:12.897Z,100358.22
2019-05-13T07:39:42.754Z,100358.39
2019-05-13T07:42:13.775Z,100363.91
2019-05-13T07:44:43.281Z,100352.34
2019-05-13T07:47:15.679Z,100364.45
2019-05-13T07:49:43.815Z,100361.47
2019-05-13T07:52:13.211Z,100355.98
2019-05-13T07:54:42.633Z,100357.84
2019-05-13T07:57:12.367Z,100353.47
2019-05-13T07:59:42.144Z,100359.19
2019-05-13T08:02:12.384Z,100349.96
2019-05-13T08:04:42.282Z,100350.89
2019-05-13T08:07:12.201Z,100352.67
2019-05-13T08:09:42.080Z,100338.48
2019-05-13T08:12:14.319Z,100354.43
2019-05-13T08:14:43.669Z,100352.73
2019-05-13T08:17:13.459Z,100352.77
2019-05-13T08:19:42.894Z,100359.80
2019-05-13T08:22:12.314Z,100360.22
2019-05-13T08:24:42.636Z,100358.94
2019-05-13T08:27:12.168Z,100362.41
2019-05-13T08:29:42.087Z,100358.78
2019-05-13T08:32:11.673Z,100369.39
2019-05-13T08:34:41.916Z,100365.50
2019-05-13T08:37:11.598Z,100364.67
2019-05-13T08:39:41.624Z,100360.98
2019-05-13T08:42:16.008Z,100354.88
2019-05-13T08:44:42.337Z,100364.59
2019-05-13T08:47:12.184Z,100359.14
2019-05-13T08:49:41.845Z,100358.79
2019-05-13T08:52:12.278Z,100354.50
2019-05-13T08:54:42.116Z,100345.14
2019-05-13T08:57:11.947Z,100342.52
2019-05-13T08:59:42.393Z,100332.23
2019-05-13T09:02:12.173Z,100330.44
2019-05-13T09:04:42.328Z,100341.23
2019-05-13T09:07:12.257Z,100340.75
2019-05-13T09:09:42.044Z,100339.78
2019-05-13T09:12:13.200Z,100333.47
2019-05-13T09:14:42.780Z,100329.10
2019-05-13T09:17:12.276Z,100338.66
2019-05-13T09:19:41.693Z,100335.20
2019-05-13T09:22:12.391Z,100324.95
2019-05-13T09:24:42.646Z,100317.86
2019-05-13T09:27:12.334Z,100322.58
2019-05-13T09:29:43.007Z,100324.69
2019-05-13T09:32:12.482Z,100325.02
2019-05-13T09:34:42.385Z,100314.54
2019-05-13T09:37:12.337Z,100330.23
2019-05-13T09:39:41.839Z,100318.72
2019-05-13T09:42:12.752Z,100320.77
2019-05-13T09:44:42.273Z,100326.30
2019-05-13T09:47:12.472Z,100318.02
2019-05-13T09:49:42.330Z,100324.69
2019-05-13T09:52:12.122Z,100314.84
2019-05-13T09:54:42.834Z,100314.03
2019-05-13T09:57:12.655Z,100306.80
2019-05-13T09:59:42.468Z,100316.92
2019-05-13T10:02:12.604Z,100323.19
2019-05-13T10:04:43.752Z,100315.37
2019-05-13T10:07:13.564Z,100308.33
2019-05-13T10:09:44.466Z,100305.78
2019-05-13T10:12:14.075Z,100310.09
2019-05-13T10:14:43.495Z,100311.78
2019-05-13T10:17:13.385Z,100306.80
2019-05-13T10:19:42.906Z,100317.74
2019-05-13T10:22:12.449Z,100313.98
2019-05-13T10:24:42.493Z,100319.63
2019-05-13T10:27:12.674Z,100305.34
2019-05-13T10:29:42.949Z,100315.08
2019-05-13T10:32:12.756Z,100302.95
2019-05-13T10:34:42.975Z,100295.86
2019-05-13T10:37:12.542Z,100300.02
2019-05-13T10:39:42.831Z,100301.11
2019-05-13T10:42:12.409Z,100299.75
2019-05-13T10:44:42.434Z,100298.23
2019-05-13T10:47:12.305Z,100312.63
2019-05-13T10:49:42.682Z,100312.55
2019-05-13T10:52:12.422Z,100311.66
2019-05-13T10:54:42.094Z,100303.02
2019-05-13T10:57:13.562Z,100296.88
2019-05-13T10:59:42.657Z,100290.48
2019-05-13T11:02:13.284Z,100283.20
2019-05-13T11:04:43.137Z,100285.80
2019-05-13T11:07:12.635Z,100286.84
2019-05-13T11:09:42.126Z,100285.22
2019-05-13T11:12:12.468Z,100281.12
2019-05-13T11:14:42.361Z,100271.31
2019-05-13T11:17:12.937Z,100289.93
2019-05-13T11:19:42.912Z,100283.92
2019-05-13T11:22:12.505Z,100278.05
2019-05-13T11:24:43.112Z,100280.38
2019-05-13T11:27:12.905Z,100272.13
2019-05-13T11:29:42.327Z,100265.47
2019-05-13T11:32:13.311Z,100279.33
2019-05-13T11:34:42.957Z,100274.22
2019-05-13T11:37:12.585Z,100273.30
2019-05-13T11:39:42.838Z,100270.47
2019-05-13T11:42:13.678Z,100270.06
2019-05-13T11:44:43.426Z,100272.13
2019-05-13T11:47:13.012Z,100247.41
2019-05-13T11:49:42.815Z,100249.02
2019-05-13T11:52:12.310Z,100249.20
2019-05-13T11:54:42.464Z,100250.67
2019-05-13T11:57:12.597Z,100258.69
2019-05-13T11:59:43.037Z,100241.46
2019-05-13T12:02:13.749Z,100239.62
2019-05-13T12:04:44.160Z,100239.16
2019-05-13T12:07:13.905Z,100250.69
2019-05-13T12:09:43.371Z,100247.59
2019-05-13T12:12:13.916Z,100236.08
2019-05-13T12:15:14.831Z,100235.91
2019-05-13T12:17:14.777Z,100231.66
2019-05-13T12:19:44.258Z,100234.35
2019-05-13T12:22:13.705Z,100233.48
2019-05-13T12:24:43.092Z,100239.00
2019-05-13T12:27:12.581Z,100234.84
2019-05-13T12:29:43.052Z,100231.74
2019-05-13T12:32:13.835Z,100227.14
2019-05-13T12:34:45.771Z,100209.11
2019-05-13T12:37:14.532Z,100209.11
2019-05-13T12:39:44.257Z,100228.73
2019-05-13T12:42:13.695Z,100230.25
2019-05-13T12:45:00.510Z,100229.05
2019-05-13T12:47:14.211Z,100237.54
2019-05-13T12:49:44.156Z,100233.33
2019-05-13T12:52:13.634Z,100223.63
2019-05-13T12:54:44.098Z,100227.14
2019-05-13T12:57:16.123Z,100230.34
2019-05-13T12:59:45.332Z,100225.17
2019-05-13T13:02:14.858Z,100220.88
2019-05-13T13:05:07.814Z,100226.44
2019-05-13T13:07:15.427Z,100215.50
2019-05-13T13:09:44.893Z,100214.71
2019-05-13T13:12:14.309Z,100217.07
2019-05-13T13:14:44.689Z,100206.66
2019-05-13T13:17:14.266Z,100206.09
2019-05-13T13:19:43.618Z,100198.15
2019-05-13T13:24:51.523Z,100201.95
2019-05-13T13:27:26.261Z,100208.11
2019-05-13T13:29:58.954Z,100207.22
2019-05-13T13:32:19.352Z,100205.69
2019-05-13T13:34:48.760Z,100199.36
2019-05-13T13:37:18.387Z,100196.09
2019-05-13T13:39:47.872Z,100193.37
2019-05-13T13:42:17.399Z,100198.56
2019-05-13T13:44:46.822Z,100193.93
2019-05-13T13:47:16.220Z,100189.61
2019-05-13T13:49:45.663Z,100184.58
2019-05-13T13:52:16.362Z,100196.14
2019-05-13T13:54:45.876Z,100178.19
2019-05-13T13:57:15.290Z,100166.79
2019-05-13T14:00:15.040Z,100168.33
2019-05-13T14:02:15.830Z,100169.91
2019-05-13T14:04:45.247Z,100168.33
2019-05-13T14:07:08.959Z,100194.33
2019-05-13T14:07:22.822Z,100166.69
2019-05-13T14:09:45.957Z,100163.11
2019-05-13T14:12:15.354Z,100172.00
2019-05-13T14:14:44.775Z,100181.86
2019-05-13T14:17:14.176Z,100170.73
2019-05-13T14:19:43.645Z,100169.58
2019-05-13T14:22:13.042Z,100155.11
2019-05-13T14:24:42.841Z,100162.46
2019-05-13T14:27:12.418Z,100161.07
2019-05-13T14:29:48.921Z,100152.05
2019-05-13T14:32:13.007Z,100152.20
2019-05-13T14:34:42.429Z,100153.84
2019-05-13T14:37:12.019Z,100161.03
2019-05-13T14:39:41.805Z,100147.68
2019-05-13T14:42:11.815Z,100151.39
2019-05-13T14:44:41.324Z,100147.62
2019-05-13T14:47:12.489Z,100153.91
2019-05-13T14:49:42.565Z,100139.41
2019-05-13T14:52:12.162Z,100139.80
2019-05-13T14:54:42.240Z,100139.29
2019-05-13T14:57:14.788Z,100141.31
2019-05-13T14:59:43.475Z,100141.81
2019-05-13T15:02:12.877Z,100136.36
2019-05-13T15:04:42.434Z,100132.30
2019-05-13T15:07:12.516Z,100120.10
2019-05-13T15:09:42.275Z,100111.28
2019-05-13T15:12:11.710Z,100116.48
2019-05-13T15:14:42.921Z,100125.00
2019-05-13T15:17:13.007Z,100128.28
2019-05-13T15:19:42.521Z,100123.15
2019-05-13T15:22:15.724Z,100127.85
2019-05-13T15:24:43.071Z,100131.13
2019-05-13T15:27:12.474Z,100120.23
2019-05-13T15:29:42.061Z,100129.77
2019-05-13T15:32:11.477Z,100119.46
2019-05-13T15:34:42.514Z,100132.27
2019-05-13T15:37:12.091Z,100130.61
2019-05-13T15:39:42.606Z,100115.06
2019-05-13T15:42:12.218Z,100123.72
2019-05-13T15:44:41.655Z,100121.32
2019-05-13T15:47:22.806Z,100110.81
2019-05-13T15:49:42.191Z,100105.05
2019-05-13T15:52:12.058Z,100103.52
2019-05-13T15:54:41.677Z,100112.30
2019-05-13T15:57:11.884Z,100108.03
2019-05-13T15:59:41.700Z,100109.84
2019-05-13T16:02:11.873Z,100108.52
2019-05-13T16:04:50.005Z,100101.19
2019-05-13T16:07:12.730Z,100104.69
2019-05-13T16:09:42.275Z,100102.08
2019-05-13T16:12:12.302Z,100107.80
2019-05-13T16:14:42.104Z,100102.30
2019-05-13T16:17:12.350Z,100105.25
2019-05-13T16:19:42.136Z,100100.91
2019-05-13T16:22:12.029Z,100096.69
2019-05-13T16:24:41.723Z,100099.10
2019-05-13T16:27:11.937Z,100083.73
2019-05-13T16:29:42.251Z,100090.92
2019-05-13T16:32:12.166Z,100089.09
2019-05-13T16:34:42.512Z,100083.75
2019-05-13T16:37:12.029Z,100091.84
2019-05-13T16:39:41.684Z,100093.27
2019-05-13T16:42:11.857Z,100096.42
2019-05-13T16:44:42.935Z,100097.56
2019-05-13T16:47:12.600Z,100095.83
2019-05-13T16:49:42.035Z,100092.20
2019-05-13T16:52:11.831Z,100095.91
2019-05-13T16:54:42.402Z,100083.94
2019-05-13T16:57:12.291Z,100087.97
2019-05-13T16:59:41.702Z,100088.08
2019-05-13T17:02:12.614Z,100091.18
2019-05-13T17:04:42.311Z,100086.97
2019-05-13T17:07:11.705Z,100090.58
2019-05-13T17:09:41.559Z,100081.77
2019-05-13T17:12:13.879Z,100079.66
2019-05-13T17:14:42.202Z,100081.45
2019-05-13T17:17:12.017Z,100082.22
2019-05-13T17:19:42.310Z,100079.09
2019-05-13T17:22:11.890Z,100086.23
2019-05-13T17:24:42.717Z,100087.69
2019-05-13T17:27:12.332Z,100098.79
2019-05-13T17:29:41.769Z,100094.80
2019-05-13T17:32:11.779Z,100097.94
2019-05-13T17:34:45.493Z,100086.92
2019-05-13T17:37:12.577Z,100094.47
2019-05-13T17:39:41.975Z,100096.63
2019-05-13T17:42:12.257Z,100096.19
2019-05-13T17:44:46.005Z,100090.41
2019-05-13T17:47:13.696Z,100086.91
2019-05-13T17:49:43.110Z,100090.06
2019-05-13T17:52:12.599Z,100085.30
2019-05-13T17:54:42.823Z,100085.73
2019-05-13T17:57:12.549Z,100094.17
2019-05-13T17:59:42.163Z,100094.22
2019-05-13T18:02:12.017Z,100095.14
2019-05-13T18:04:41.730Z,100090.73
2019-05-13T18:07:12.205Z,100096.10
2019-05-13T18:09:42.321Z,100099.69
2019-05-13T18:12:12.039Z,100093.91
2019-05-13T18:14:41.446Z,100097.02
2019-05-13T18:17:12.535Z,100093.91
2019-05-13T18:19:42.337Z,100098.37
2019-05-13T18:22:11.853Z,100093.51
2019-05-13T18:24:41.284Z,100094.83
2019-05-13T18:29:41.962Z,100091.34
2019-05-13T18:32:12.391Z,100090.47
2019-05-13T18:34:42.015Z,100081.67
2019-05-13T18:37:12.006Z,100090.12
2019-05-13T18:39:41.802Z,100088.33
2019-05-13T18:42:11.621Z,100093.20
2019-05-13T18:44:42.172Z,100091.89
2019-05-13T18:47:12.235Z,100085.30
2019-05-13T18:49:42.459Z,100092.39
2019-05-13T18:52:13.502Z,100093.30
2019-05-13T18:54:42.979Z,100091.52
2019-05-13T18:57:12.488Z,100085.81
2019-05-13T18:59:41.904Z,100095.94
2019-05-13T19:02:12.255Z,100092.81
2019-05-13T19:04:42.071Z,100099.01
2019-05-13T19:07:11.747Z,100100.77
2019-05-13T19:09:41.788Z,100098.55
2019-05-13T19:12:11.735Z,100103.43
2019-05-13T19:14:41.369Z,100102.09
2019-05-13T19:17:12.370Z,100107.39
2019-05-13T19:19:42.275Z,100104.71
2019-05-13T19:22:12.430Z,100106.88
2019-05-13T19:24:41.851Z,100100.24
2019-05-13T19:27:11.999Z,100096.29
2019-05-13T19:29:42.443Z,100103.77
2019-05-13T19:32:12.585Z,100105.95
2019-05-13T19:34:42.510Z,100105.05
2019-05-13T19:37:12.171Z,100101.09
2019-05-13T19:39:41.569Z,100102.39
2019-05-13T19:42:11.561Z,100097.56
2019-05-13T19:44:42.027Z,100100.16
2019-05-13T19:47:12.406Z,100094.84
2019-05-13T19:49:46.312Z,100097.05
2019-05-13T19:52:13.299Z,100099.21
2019-05-13T19:54:42.716Z,100104.52
2019-05-13T19:57:12.193Z,100096.53
2019-05-13T19:59:42.624Z,100094.30
2019-05-13T20:02:12.400Z,100095.17
2019-05-13T20:04:41.928Z,100098.25
2019-05-13T20:07:11.964Z,100093.84
2019-05-13T20:09:42.557Z,100094.31
2019-05-13T20:12:15.527Z,100100.37
2019-05-13T20:14:43.370Z,100099.91
2019-05-13T20:17:12.813Z,100102.05
2019-05-13T20:19:50.306Z,100098.93
2019-05-13T20:22:13.458Z,100097.13
2019-05-13T20:24:42.824Z,100099.28
2019-05-13T20:27:13.183Z,100104.95
2019-05-13T20:29:44.256Z,100099.23
2019-05-13T20:32:13.690Z,100104.45
2019-05-13T20:34:43.155Z,100099.58
2019-05-13T20:37:12.630Z,100105.66
2019-05-13T20:39:42.539Z,100109.16
2019-05-13T20:42:12.613Z,100109.59
2019-05-13T20:44:42.164Z,100110.31
2019-05-13T20:47:11.588Z,100104.91
2019-05-13T20:49:41.753Z,100117.03
2019-05-13T20:52:14.687Z,100118.27
2019-05-13T20:54:42.608Z,100111.93
2019-05-13T20:57:12.032Z,100109.91
2019-05-13T20:59:41.589Z,100106.67
2019-05-13T21:02:12.388Z,100111.81
2019-05-13T21:04:42.004Z,100112.98
2019-05-13T21:07:11.428Z,100111.49
2019-05-13T21:09:42.316Z,100100.48
2019-05-13T21:12:12.206Z,100098.63
2019-05-13T21:14:41.769Z,100092.86
2019-05-13T21:17:12.195Z,100095.03
2019-05-13T21:19:42.900Z,100095.80
2019-05-13T21:22:12.501Z,100096.55
2019-05-13T21:24:41.905Z,100097.78
2019-05-13T21:27:12.012Z,100100.45
2019-05-13T21:29:41.654Z,100106.61
2019-05-13T21:32:11.838Z,100099.95
2019-05-13T21:34:41.293Z,100097.53
2019-05-13T21:37:11.542Z,100101.39
2019-05-13T21:39:41.359Z,100100.38
2019-05-13T21:42:11.462Z,100102.25
2019-05-13T21:44:42.035Z,100105.17
2019-05-13T21:47:11.582Z,100100.80
2019-05-13T21:49:42.369Z,100100.38
2019-05-13T21:52:11.892Z,100098.30
2019-05-13T21:54:42.215Z,100098.77
2019-05-13T21:57:11.693Z,100101.82
2019-05-13T21:59:41.506Z,100097.70
2019-05-13T22:02:11.377Z,100100.92
2019-05-13T22:04:41.362Z,100103.65
2019-05-13T22:07:12.145Z,100098.62
2019-05-13T22:09:42.337Z,100099.64
2019-05-13T22:12:11.791Z,100105.69
2019-05-13T22:14:41.384Z,100102.06
2019-05-13T22:17:12.294Z,100106.73
2019-05-13T22:19:42.137Z,100104.39
2019-05-13T22:22:11.913Z,100106.00
2019-05-13T22:24:41.941Z,100100.64
2019-05-13T22:27:13.286Z,100097.06
2019-05-13T22:29:42.556Z,100099.95
2019-05-13T22:32:12.042Z,100094.16
2019-05-13T22:34:42.091Z,100094.95
2019-05-13T22:37:11.804Z,100089.34
2019-05-13T22:39:42.171Z,100088.25
2019-05-13T22:42:12.506Z,100085.88
2019-05-13T22:44:42.059Z,100076.47
2019-05-13T22:47:13.447Z,100079.94
2019-05-13T22:49:42.637Z,100078.63
2019-05-13T22:52:12.055Z,100083.45
2019-05-13T22:54:41.446Z,100082.13
2019-05-13T22:57:11.995Z,100079.78
2019-05-13T22:59:41.776Z,100090.34
2019-05-13T23:02:11.134Z,100077.47
2019-05-13T23:04:41.853Z,100081.41
2019-05-13T23:07:11.904Z,100065.13
2019-05-13T23:09:41.719Z,100070.43
2019-05-13T23:12:12.273Z,100073.78
2019-05-13T23:14:41.807Z,100071.16
2019-05-13T23:17:12.510Z,100065.47
2019-05-13T23:19:42.083Z,100061.06
2019-05-13T23:22:12.096Z,100057.95
2019-05-13T23:24:41.932Z,100061.02
2019-05-13T23:27:11.318Z,100063.22
2019-05-13T23:29:41.355Z,100070.16
2019-05-13T23:32:12.096Z,100068.85
2019-05-13T23:34:42.239Z,100066.73
2019-05-13T23:37:11.899Z,100068.00
2019-05-13T23:39:41.787Z,100064.53
2019-05-13T23:42:12.180Z,100059.70
2019-05-13T23:44:41.978Z,100053.14
2019-05-13T23:47:11.706Z,100050.81
2019-05-13T23:49:42.111Z,100047.72
2019-05-13T23:52:11.957Z,100040.95
2019-05-13T23:54:42.390Z,100042.20
2019-05-13T23:57:12.178Z,100036.95
2019-05-13T23:59:42.147Z,100036.43
